Airfield :
LOGIN :

Register | Disclaimer

   EN    FR    IT 

 










Legend :    VFR   Marginal VFR   IFR   Intensive IFR   Very Intensive IFR
Visi :
Ceiling :
>= 8 km
>= 3000ft
5 to 8 km
1000 to 3000 ft
1500m to 5 km
500 to 1000 ft
800 to 1500m
200 to 500 ft
< 800m
< 200 ft
Symbols :   Thunderstorms  Fog  Heavy snow  Heavy precipitations  Wind > 20 kt
SIGMETs :     Misc.  Thunderstorms  Icing  Turbulence  Mountain Waves  Volcanic Ashes






- Airport Elevation : 1325 ft
- IATA code : EBU


LFMH - St-Etienne Boutheon

CURRENT METAR :
  • 031800Z AUTO 34011KT 310V010 CAVOK 21/08 Q1020 NOSIG

EXPIRED METARs :
  • 031730Z AUTO 34011KT 300V030 CAVOK 22/09 Q1020 NOSIG
  • 031700Z AUTO 32011KT 290V020 CAVOK 22/08 Q1020 NOSIG
  • 031630Z AUTO 34011KT 300V010 9999 FEW058 BKN076 22/08 Q1020 NOSIG
  • 031600Z AUTO 35011KT 320V020 CAVOK 22/08 Q1020 NOSIG
  • 031530Z AUTO 33011KT 300V010 CAVOK 22/08 Q1020 NOSIG
  • 031500Z AUTO 33012KT 280V360 9999 SCT056 SCT066 22/08 Q1020 NOSIG

TAF TAF LFMH
Valid from the 03 at 15:00 until the 04 at 15:00 UTC


031400Z 0315/0415 35012KT CAVOK
BECMG 0321/0323 VRB02KT
BECMG 0407/0409 35008KT
ATIS : +33 4 77 36 17 51



MET'MAP, your aeronautical weather chart ! - Copyright ORBIFLY December 2007 - Disclaimer

ORBIFLY MET'MAP TEAM :

Programming & Development : Alexandra Zaïnal
Concept & original design : Baudouin d'Aumeries
Assistance for programming : Marc-Olivier Méhu
Technical & hardware support : Manuel Goepfert

Contact : metmap@orbifly.com




SOURCES & CREDITS :

   NOAA